createdAt,value
2019-02-23T00:09:31.514Z,98336.02
2019-02-23T00:12:27.118Z,98343.56
2019-02-23T00:15:07.181Z,98359.61
2019-02-23T00:18:35.627Z,98357.56
2019-02-23T00:21:52.614Z,98358.32
2019-02-23T00:24:33.777Z,98357.78
2019-02-23T00:27:34.419Z,98359.10
2019-02-23T00:30:38.437Z,98354.36
2019-02-23T00:33:34.884Z,98353.72
2019-02-23T00:36:49.116Z,98360.35
2019-02-23T00:45:51.594Z,98360.56
2019-02-23T00:48:46.003Z,98362.02
2019-02-23T00:51:18.167Z,98364.50
2019-02-23T00:53:52.949Z,98364.72
2019-02-23T00:56:28.244Z,98366.05
2019-02-23T00:59:14.595Z,98371.13
2019-02-23T01:05:16.220Z,98360.70
2019-02-23T01:08:35.966Z,98367.97
2019-02-23T01:12:23.512Z,98355.98
2019-02-23T01:25:23.979Z,98349.58
2019-02-23T01:31:06.009Z,98346.97
2019-02-23T01:33:40.468Z,98348.11
2019-02-23T01:36:16.596Z,98342.38
2019-02-23T01:38:55.130Z,98344.08
2019-02-23T01:45:14.156Z,98342.59
2019-02-23T01:47:50.853Z,98335.47
2019-02-23T01:50:26.104Z,98339.27
2019-02-23T01:53:07.531Z,98335.27
2019-02-23T01:55:47.797Z,98349.47
2019-02-23T01:58:26.677Z,98343.41
2019-02-23T02:17:32.217Z,98341.39
2019-02-23T02:20:14.842Z,98336.30
2019-02-23T02:22:52.282Z,98333.63
2019-02-23T02:25:40.277Z,98333.63
2019-02-23T02:31:17.849Z,98336.85
2019-02-23T02:34:26.367Z,98335.34
2019-02-23T02:37:07.626Z,98337.71
2019-02-23T02:39:43.462Z,98339.25
2019-02-23T02:42:22.221Z,98349.63
2019-02-23T02:44:56.432Z,98339.35
2019-02-23T02:47:39.624Z,98353.42
2019-02-23T02:50:23.872Z,98355.36
2019-02-23T02:52:50.818Z,98366.00
2019-02-23T02:55:26.795Z,98343.49
2019-02-23T02:57:58.159Z,98349.42
2019-02-23T03:00:29.613Z,98352.00
2019-02-23T03:03:05.425Z,98348.08
2019-02-23T03:05:36.807Z,98365.66
2019-02-23T03:08:07.452Z,98351.11
2019-02-23T03:10:39.562Z,98364.72
2019-02-23T03:13:10.869Z,98350.45
2019-02-23T03:15:43.400Z,98358.67
2019-02-23T03:18:13.468Z,98355.13
2019-02-23T03:21:02.118Z,98366.48
2019-02-23T03:23:32.787Z,98352.47
2019-02-23T03:26:02.898Z,98366.84
2019-02-23T03:28:37.571Z,98364.71
2019-02-23T03:31:09.574Z,98366.05
2019-02-23T03:33:40.161Z,98356.69
2019-02-23T03:36:12.667Z,98362.88
2019-02-23T03:38:42.697Z,98375.69
2019-02-23T03:41:13.084Z,98373.72
2019-02-23T03:44:05.672Z,98377.27
2019-02-23T03:46:39.121Z,98377.27
2019-02-23T03:49:20.870Z,98375.33
2019-02-23T03:51:57.856Z,98375.33
2019-02-23T03:54:31.447Z,98392.25
2019-02-23T03:57:09.029Z,98397.36
2019-02-23T03:59:44.058Z,98408.08
2019-02-23T04:02:17.277Z,98398.91
2019-02-23T04:04:48.550Z,98389.28
2019-02-23T04:07:24.421Z,98395.91
2019-02-23T04:10:05.346Z,98381.23
2019-02-23T04:12:40.138Z,98387.82
2019-02-23T04:15:14.513Z,98412.30
2019-02-23T04:17:52.038Z,98405.03
2019-02-23T04:20:23.569Z,98405.03
2019-02-23T04:22:55.911Z,98413.38
2019-02-23T04:25:33.680Z,98422.98
2019-02-23T04:28:03.822Z,98422.98
2019-02-23T04:30:35.827Z,98432.18
2019-02-23T04:33:13.807Z,98451.64
2019-02-23T04:35:52.277Z,98434.09
2019-02-23T04:38:24.309Z,98434.09
2019-02-23T04:40:57.242Z,98437.06
2019-02-23T04:43:32.512Z,98435.18
2019-02-23T04:46:11.634Z,98404.52
2019-02-23T04:48:46.458Z,98404.52
2019-02-23T04:51:21.692Z,98396.19
2019-02-23T04:53:56.887Z,98396.19
2019-02-23T04:56:42.823Z,98447.98
2019-02-23T04:59:18.235Z,98425.53
2019-02-23T05:01:49.725Z,98425.53
2019-02-23T05:04:31.932Z,98463.26
2019-02-23T05:07:07.070Z,98465.06
2019-02-23T05:09:40.860Z,98465.06
2019-02-23T05:12:23.724Z,98458.97
2019-02-23T05:15:01.414Z,98459.73
2019-02-23T05:17:39.662Z,98446.20
2019-02-23T05:20:12.599Z,98469.05
2019-02-23T05:22:52.226Z,98480.88
2019-02-23T05:25:26.243Z,98475.08
2019-02-23T05:28:06.926Z,98462.59
2019-02-23T05:30:44.632Z,98478.50
2019-02-23T05:33:20.945Z,98491.19
2019-02-23T05:35:51.358Z,98506.80
2019-02-23T05:38:22.042Z,98494.59
2019-02-23T05:40:54.430Z,98479.97
2019-02-23T05:43:26.409Z,98488.90
2019-02-23T05:48:53.844Z,98500.77
2019-02-23T05:51:39.424Z,98477.58
2019-02-23T05:54:17.232Z,98473.53
2019-02-23T05:56:49.731Z,98442.56
2019-02-23T05:59:20.229Z,98495.57
2019-02-23T06:01:55.332Z,98495.57
2019-02-23T06:04:30.823Z,98492.74
2019-02-23T06:07:24.254Z,98509.75
2019-02-23T06:10:05.284Z,98504.72
2019-02-23T06:16:02.542Z,98531.34
2019-02-23T06:22:18.426Z,98508.69
2019-02-23T06:24:57.398Z,98475.50
2019-02-23T06:27:46.630Z,98520.06
2019-02-23T06:30:30.743Z,98518.72
2019-02-23T06:33:11.103Z,98518.62
2019-02-23T06:35:44.971Z,98521.02
2019-02-23T06:38:36.955Z,98520.06
2019-02-23T06:41:32.926Z,98479.43
2019-02-23T06:44:16.869Z,98517.58
2019-02-23T06:47:00.284Z,98517.58
2019-02-23T06:49:45.920Z,98536.06
2019-02-23T06:52:30.931Z,98550.06
2019-02-23T06:55:06.484Z,98571.91
2019-02-23T06:57:42.425Z,98592.45
2019-02-23T07:00:17.056Z,98620.91
2019-02-23T07:02:55.157Z,98637.86
2019-02-23T07:05:31.728Z,98643.91
2019-02-23T07:08:03.648Z,98638.14
2019-02-23T07:10:39.922Z,98611.31
2019-02-23T07:13:14.931Z,98586.67
2019-02-23T07:15:48.297Z,98569.16
2019-02-23T07:18:19.967Z,98547.88
2019-02-23T07:20:58.529Z,98558.29
2019-02-23T07:23:38.132Z,98560.02
2019-02-23T07:26:09.198Z,98609.31
2019-02-23T07:28:39.845Z,98597.77
2019-02-23T07:31:17.842Z,98611.92
2019-02-23T07:33:52.914Z,98620.63
2019-02-23T07:36:25.062Z,98596.91
2019-02-23T07:38:55.957Z,98548.73
2019-02-23T07:41:33.067Z,98548.73
2019-02-23T07:44:03.613Z,98496.52
2019-02-23T07:46:56.429Z,98496.52
2019-02-23T07:49:34.362Z,98475.27
2019-02-23T07:52:25.721Z,98513.66
2019-02-23T07:54:52.656Z,98513.66
2019-02-23T07:57:33.932Z,98481.78
2019-02-23T08:00:16.296Z,98490.55
2019-02-23T08:02:46.825Z,98490.55
2019-02-23T08:05:31.229Z,98505.20
2019-02-23T08:08:10.276Z,98496.34
2019-02-23T08:10:40.992Z,98518.31
2019-02-23T08:13:11.742Z,98491.89
2019-02-23T08:15:42.232Z,98491.89
2019-02-23T08:18:35.937Z,98476.44
2019-02-23T08:21:09.435Z,98462.68
2019-02-23T08:23:40.040Z,98441.21
2019-02-23T08:26:13.821Z,98445.76
2019-02-23T08:28:46.344Z,98447.05
2019-02-23T08:31:17.342Z,98422.99
2019-02-23T08:33:55.729Z,98455.04
2019-02-23T08:36:30.631Z,98455.04
2019-02-23T08:39:03.846Z,98459.73
2019-02-23T08:41:45.309Z,98425.52
2019-02-23T08:44:18.014Z,98448.41
2019-02-23T08:46:52.233Z,98453.34
2019-02-23T08:49:39.833Z,98453.34
2019-02-23T08:52:32.231Z,98443.38
2019-02-23T08:58:48.134Z,98450.52
2019-02-23T09:01:23.102Z,98456.73
2019-02-23T09:04:08.232Z,98466.56
2019-02-23T09:06:50.531Z,98414.69
2019-02-23T09:09:24.246Z,98467.13
2019-02-23T09:12:04.238Z,98447.09
2019-02-23T09:14:38.542Z,98460.22
2019-02-23T09:17:19.131Z,98461.81
2019-02-23T09:19:56.032Z,98458.18
2019-02-23T09:22:35.234Z,98460.37
2019-02-23T09:25:10.140Z,98449.42
2019-02-23T09:28:01.532Z,98437.75
2019-02-23T09:30:34.502Z,98458.81
2019-02-23T09:33:04.797Z,98450.97
2019-02-23T09:35:34.885Z,98446.41
2019-02-23T09:38:08.792Z,98466.66
2019-02-23T09:40:38.780Z,98455.46
2019-02-23T09:43:09.197Z,98466.53
2019-02-23T09:45:41.340Z,98472.12
2019-02-23T09:48:14.702Z,98477.50
2019-02-23T09:50:46.122Z,98459.66
2019-02-23T09:53:29.382Z,98457.05
2019-02-23T09:56:10.265Z,98448.75
2019-02-23T09:58:44.216Z,98436.80
2019-02-23T10:01:32.139Z,98430.86
2019-02-23T10:04:19.117Z,98449.32
2019-02-23T10:07:09.331Z,98463.58
2019-02-23T10:09:52.158Z,98469.02
2019-02-23T10:12:40.935Z,98454.67
2019-02-23T10:15:20.289Z,98450.77
2019-02-23T10:17:56.970Z,98475.30
2019-02-23T10:20:35.166Z,98469.71
2019-02-23T10:23:21.558Z,98460.37
2019-02-23T10:25:57.431Z,98466.22
2019-02-23T10:28:34.651Z,98457.36
2019-02-23T10:31:05.726Z,98468.72
2019-02-23T10:33:47.638Z,98460.45
2019-02-23T10:36:21.424Z,98448.18
2019-02-23T10:38:58.405Z,98455.50
2019-02-23T10:41:34.241Z,98462.53
2019-02-23T10:44:09.892Z,98459.40
2019-02-23T10:46:52.135Z,98464.56
2019-02-23T10:49:25.499Z,98468.67
2019-02-23T10:51:59.331Z,98461.44
2019-02-23T10:54:36.193Z,98450.00
2019-02-23T10:57:12.835Z,98449.52
2019-02-23T10:59:48.276Z,98444.07
2019-02-23T11:02:24.545Z,98439.94
2019-02-23T11:05:07.136Z,98422.32
2019-02-23T11:07:40.865Z,98419.09
2019-02-23T11:10:18.261Z,98401.34
2019-02-23T11:12:54.757Z,98404.64
2019-02-23T11:15:27.461Z,98417.52
2019-02-23T11:18:02.915Z,98390.59
2019-02-23T11:20:40.882Z,98395.62
2019-02-23T11:23:25.582Z,98407.84
2019-02-23T11:25:57.025Z,98383.13
2019-02-23T11:28:32.396Z,98408.66
2019-02-23T11:31:05.875Z,98419.09
2019-02-23T11:33:38.990Z,98397.52
2019-02-23T11:36:15.882Z,98390.16
2019-02-23T11:38:57.286Z,98376.52
2019-02-23T11:41:43.334Z,98373.45
2019-02-23T11:44:19.958Z,98369.89
2019-02-23T11:47:00.313Z,98350.88
2019-02-23T11:49:40.681Z,98364.95
2019-02-23T11:52:29.536Z,98342.53
2019-02-23T11:55:15.680Z,98351.26
2019-02-23T11:57:55.647Z,98350.89
2019-02-23T12:00:28.609Z,98340.53
2019-02-23T12:03:09.641Z,98371.20
2019-02-23T12:05:44.332Z,98367.92
2019-02-23T12:08:24.578Z,98363.78
2019-02-23T12:11:04.175Z,98356.68
2019-02-23T12:13:45.386Z,98361.09
2019-02-23T12:16:19.233Z,98339.73
2019-02-23T12:18:56.699Z,98371.02
2019-02-23T12:21:31.412Z,98359.17
2019-02-23T12:24:25.493Z,98346.64
2019-02-23T12:27:12.538Z,98340.97
2019-02-23T12:30:01.849Z,98330.16
2019-02-23T12:32:46.581Z,98353.97
2019-02-23T12:35:33.380Z,98337.70
2019-02-23T12:38:21.620Z,98364.22
2019-02-23T12:40:58.951Z,98364.22
2019-02-23T12:43:51.962Z,98376.80
2019-02-23T12:46:54.237Z,98351.34
2019-02-23T12:49:57.077Z,98344.97
2019-02-23T12:52:59.829Z,98333.45
2019-02-23T12:56:04.289Z,98376.09
2019-02-23T12:59:04.620Z,98366.58
2019-02-23T13:01:42.264Z,98344.45
2019-02-23T13:04:34.236Z,98347.58
2019-02-23T13:07:38.560Z,98354.06
2019-02-23T13:10:15.376Z,98358.04
2019-02-23T13:13:12.610Z,98354.00
2019-02-23T13:16:09.087Z,98334.30
2019-02-23T13:18:58.200Z,98333.59
2019-02-23T13:21:35.209Z,98333.63
2019-02-23T13:24:31.000Z,98324.55
2019-02-23T13:27:40.637Z,98324.55
2019-02-23T13:30:45.369Z,98332.17
2019-02-23T13:40:29.338Z,98382.51
2019-02-23T13:43:24.143Z,98382.51
2019-02-23T13:53:18.348Z,98340.28
2019-02-23T13:59:57.922Z,98370.84
2019-02-23T14:03:00.839Z,98368.89
2019-02-23T14:10:00.940Z,98366.38
2019-02-23T14:16:11.834Z,98335.95
2019-02-23T14:19:25.644Z,98352.16
2019-02-23T14:22:33.145Z,98354.46
2019-02-23T14:25:29.790Z,98363.37
2019-02-23T14:28:30.065Z,98368.27
2019-02-23T14:31:29.346Z,98383.06
2019-02-23T14:34:44.440Z,98370.20
2019-02-23T14:41:12.222Z,98351.16
2019-02-23T14:44:41.890Z,98360.20
2019-02-23T14:47:48.440Z,98322.42
2019-02-23T14:50:49.005Z,98360.44
2019-02-23T14:53:41.296Z,98366.23
2019-02-23T14:56:43.465Z,98362.97
2019-02-23T14:59:48.734Z,98362.97
2019-02-23T15:02:40.112Z,98359.32
2019-02-23T15:05:19.028Z,98359.32
2019-02-23T15:08:16.186Z,98330.05
2019-02-23T15:11:20.965Z,98348.45
2019-02-23T15:13:55.017Z,98348.45
2019-02-23T15:16:46.630Z,98355.25
2019-02-23T15:19:37.100Z,98353.67
2019-02-23T15:22:32.040Z,98365.19
2019-02-23T15:25:23.264Z,98363.25
2019-02-23T15:28:10.697Z,98363.25
2019-02-23T15:31:09.565Z,98358.84
2019-02-23T15:34:14.652Z,98384.30
2019-02-23T15:37:01.566Z,98358.84
2019-02-23T15:40:09.140Z,98363.34
2019-02-23T15:43:10.875Z,98372.41
2019-02-23T15:45:54.106Z,98381.44
2019-02-23T15:49:04.359Z,98381.44
2019-02-23T15:51:41.384Z,98365.81
2019-02-23T15:54:12.569Z,98378.80
2019-02-23T15:56:52.546Z,98378.80
2019-02-23T15:59:31.773Z,98406.72
2019-02-23T16:05:01.109Z,98396.12
2019-02-23T16:10:23.840Z,98403.38
2019-02-23T16:13:00.034Z,98403.38
2019-02-23T16:15:32.316Z,98399.59
2019-02-23T16:18:06.707Z,98402.28
2019-02-23T16:23:36.481Z,98419.38
2019-02-23T16:26:09.874Z,98419.38
2019-02-23T16:28:42.780Z,98392.08
2019-02-23T16:31:16.954Z,98405.11
2019-02-23T16:33:59.325Z,98436.45
2019-02-23T16:39:23.007Z,98435.56
2019-02-23T16:42:07.646Z,98440.59
2019-02-23T16:44:45.765Z,98455.09
2019-02-23T16:47:25.649Z,98452.00
2019-02-23T16:49:57.376Z,98460.12
2019-02-23T16:52:38.050Z,98476.21
2019-02-23T16:55:12.465Z,98464.53
2019-02-23T16:57:55.746Z,98468.05
2019-02-23T17:00:36.996Z,98477.73
2019-02-23T17:03:12.855Z,98485.42
2019-02-23T17:05:57.039Z,98481.62
2019-02-23T17:11:22.562Z,98482.82
2019-02-23T17:13:57.706Z,98491.52
2019-02-23T17:16:32.875Z,98486.87
2019-02-23T17:19:05.885Z,98482.20
2019-02-23T17:21:40.462Z,98494.53
2019-02-23T17:24:11.676Z,98485.53
2019-02-23T17:26:44.287Z,98497.72
2019-02-23T17:29:15.709Z,98496.88
2019-02-23T17:31:57.263Z,98483.27
2019-02-23T17:34:30.098Z,98479.28
2019-02-23T17:37:12.566Z,98452.91
2019-02-23T17:39:46.791Z,98490.27
2019-02-23T17:42:28.623Z,98473.69
2019-02-23T17:45:01.146Z,98487.50
2019-02-23T17:48:01.283Z,98485.50
2019-02-23T17:50:36.877Z,98468.58
2019-02-23T17:53:20.577Z,98482.98
2019-02-23T17:55:53.649Z,98489.47
2019-02-23T17:58:25.582Z,98484.86
2019-02-23T18:01:49.115Z,98500.15
2019-02-23T18:04:53.849Z,98478.02
2019-02-23T18:07:37.754Z,98483.19
2019-02-23T18:10:12.165Z,98484.37
2019-02-23T18:12:56.669Z,98494.66
2019-02-23T18:15:30.255Z,98479.72
2019-02-23T18:18:11.978Z,98477.53
2019-02-23T18:20:51.235Z,98472.56
2019-02-23T18:23:30.479Z,98483.68
2019-02-23T18:26:04.192Z,98482.06
2019-02-23T18:28:38.774Z,98512.27
2019-02-23T18:31:20.009Z,98507.30
2019-02-23T18:34:06.747Z,98490.36
2019-02-23T18:37:07.651Z,98512.95
2019-02-23T18:39:47.494Z,98506.13
2019-02-23T18:46:13.416Z,98501.97
2019-02-23T18:48:52.441Z,98502.80
2019-02-23T18:51:25.951Z,98501.97
2019-02-23T18:54:00.870Z,98479.55
2019-02-23T18:56:40.449Z,98503.27
2019-02-23T18:59:13.012Z,98516.41
2019-02-23T19:04:42.711Z,98519.58
2019-02-23T19:07:28.334Z,98522.42
2019-02-23T19:10:09.682Z,98523.91
2019-02-23T19:12:51.751Z,98532.53
2019-02-23T19:15:32.795Z,98547.83
2019-02-23T19:18:22.051Z,98552.13
2019-02-23T19:20:58.822Z,98570.58
2019-02-23T19:23:36.648Z,98556.77
2019-02-23T19:26:12.524Z,98565.60
2019-02-23T19:28:44.514Z,98569.07
2019-02-23T19:31:19.521Z,98561.59
2019-02-23T19:33:51.079Z,98563.94
2019-02-23T19:36:22.871Z,98578.38
2019-02-23T19:38:54.729Z,98564.08
2019-02-23T19:41:28.957Z,98557.78
2019-02-23T19:44:07.737Z,98571.05
2019-02-23T19:46:46.460Z,98561.91
2019-02-23T19:49:39.354Z,98572.30
2019-02-23T19:52:35.351Z,98564.02
2019-02-23T19:55:33.358Z,98568.02
2019-02-23T19:58:21.051Z,98568.81
2019-02-23T20:01:17.210Z,98578.91
2019-02-23T20:04:19.254Z,98587.42
2019-02-23T20:07:09.137Z,98586.34
2019-02-23T20:09:44.112Z,98589.64
2019-02-23T20:12:31.052Z,98611.01
2019-02-23T20:15:07.517Z,98607.67
2019-02-23T20:17:55.354Z,98606.64
2019-02-23T20:23:39.028Z,98608.00
2019-02-23T20:26:17.695Z,98611.66
2019-02-23T20:28:54.948Z,98620.74
2019-02-23T20:31:34.292Z,98640.80
2019-02-23T20:34:06.272Z,98642.03
2019-02-23T20:36:51.857Z,98655.81
2019-02-23T20:39:41.987Z,98643.77
2019-02-23T20:42:23.355Z,98648.45
2019-02-23T20:44:56.877Z,98649.27
2019-02-23T20:47:42.359Z,98662.55
2019-02-23T20:50:22.154Z,98646.63
2019-02-23T20:53:05.551Z,98658.06
2019-02-23T20:55:36.809Z,98663.86
2019-02-23T20:58:18.822Z,98647.59
2019-02-23T21:00:53.219Z,98634.64
2019-02-23T21:03:32.557Z,98631.42
2019-02-23T21:06:06.220Z,98638.08
2019-02-23T21:08:49.479Z,98633.94
2019-02-23T21:11:30.684Z,98629.28
2019-02-23T21:14:04.886Z,98610.89
2019-02-23T21:16:46.560Z,98629.86
2019-02-23T21:19:20.471Z,98624.51
2019-02-23T21:21:55.884Z,98627.52
2019-02-23T21:30:34.988Z,98666.72
2019-02-23T21:33:31.256Z,98652.10
2019-02-23T21:36:08.245Z,98652.75
2019-02-23T21:38:48.325Z,98633.45
2019-02-23T21:41:31.123Z,98630.17
2019-02-23T21:44:10.102Z,98634.81
2019-02-23T21:46:56.859Z,98631.20
2019-02-23T21:49:37.557Z,98627.05
2019-02-23T21:52:19.953Z,98590.49
2019-02-23T21:54:54.590Z,98633.34
2019-02-23T21:57:41.657Z,98603.79
2019-02-23T22:00:21.156Z,98603.28
2019-02-23T22:03:12.854Z,98633.35
2019-02-23T22:05:47.298Z,98626.69
2019-02-23T22:08:24.148Z,98621.53
2019-02-23T22:10:56.899Z,98626.86
2019-02-23T22:13:43.754Z,98618.23
2019-02-23T22:16:20.669Z,98620.37
2019-02-23T22:18:55.659Z,98619.63
2019-02-23T22:21:40.293Z,98627.98
2019-02-23T22:24:22.157Z,98642.39
2019-02-23T22:26:54.790Z,98645.33
2019-02-23T22:29:29.160Z,98649.08
2019-02-23T22:32:10.156Z,98636.59
2019-02-23T22:34:47.477Z,98643.25
2019-02-23T22:37:33.762Z,98641.63
2019-02-23T22:40:08.793Z,98658.25
2019-02-23T22:42:48.859Z,98656.44
2019-02-23T22:45:29.179Z,98666.48
2019-02-23T22:48:09.265Z,98672.41
2019-02-23T22:50:47.999Z,98653.48
2019-02-23T22:53:26.257Z,98667.50
2019-02-23T22:55:59.634Z,98661.88
2019-02-23T23:09:39.868Z,98695.07
2019-02-23T23:12:18.155Z,98680.23
2019-02-23T23:14:55.619Z,98681.04
2019-02-23T23:17:36.357Z,98675.73
2019-02-23T23:20:13.179Z,98683.86
2019-02-23T23:22:50.656Z,98675.04
2019-02-23T23:25:26.161Z,98696.49
2019-02-23T23:28:09.056Z,98697.59
2019-02-23T23:30:49.553Z,98698.02
2019-02-23T23:33:21.833Z,98698.47
2019-02-23T23:35:53.759Z,98697.72
2019-02-23T23:38:34.575Z,98700.37
2019-02-23T23:41:08.373Z,98706.00
2019-02-23T23:43:39.474Z,98702.61
2019-02-23T23:46:11.482Z,98697.17
2019-02-23T23:48:43.762Z,98692.28
2019-02-23T23:51:18.595Z,98695.70
2019-02-23T23:53:51.944Z,98699.66
2019-02-23T23:56:31.057Z,98710.38
2019-02-23T23:59:02.935Z,98702.30
